createdAt,value
2019-03-13T00:01:57.536Z,55.16
2019-03-13T00:04:26.756Z,55.19
2019-03-13T00:06:55.953Z,55.42
2019-03-13T00:09:25.259Z,55.53
2019-03-13T00:11:54.491Z,55.53
2019-03-13T00:14:23.738Z,55.62
2019-03-13T00:16:52.920Z,55.64
2019-03-13T00:19:22.228Z,55.75
2019-03-13T00:21:51.460Z,55.89
2019-03-13T00:24:20.688Z,56.02
2019-03-13T00:26:49.926Z,56.04
2019-03-13T00:29:19.233Z,56.10
2019-03-13T00:31:48.503Z,56.21
2019-03-13T00:34:17.753Z,56.24
2019-03-13T00:36:46.953Z,56.34
2019-03-13T00:39:16.155Z,56.53
2019-03-13T00:41:45.392Z,56.60
2019-03-13T00:44:14.631Z,56.63
2019-03-13T00:46:43.908Z,56.66
2019-03-13T00:49:13.159Z,56.69
2019-03-13T00:51:42.382Z,56.77
2019-03-13T00:54:11.592Z,56.73
2019-03-13T00:56:40.903Z,56.76
2019-03-13T00:59:10.102Z,56.78
2019-03-13T01:02:07.255Z,56.72
2019-03-13T01:04:41.110Z,56.76
2019-03-13T01:07:11.551Z,56.70
2019-03-13T01:09:40.768Z,56.72
2019-03-13T01:12:09.975Z,56.80
2019-03-13T01:14:39.292Z,56.88
2019-03-13T01:17:08.793Z,56.83
2019-03-13T01:19:37.990Z,56.79
2019-03-13T01:22:07.220Z,56.89
2019-03-13T01:24:36.399Z,56.93
2019-03-13T01:27:05.619Z,56.93
2019-03-13T01:29:35.229Z,57.03
2019-03-13T01:32:32.765Z,57.20
2019-03-13T01:35:21.050Z,57.28
2019-03-13T01:37:50.434Z,57.29
2019-03-13T01:40:19.831Z,57.36
2019-03-13T01:42:49.049Z,57.59
2019-03-13T01:45:18.355Z,57.75
2019-03-13T01:47:47.564Z,57.94
2019-03-13T01:50:16.806Z,58.05
2019-03-13T01:52:45.998Z,58.20
2019-03-13T01:55:15.206Z,58.36
2019-03-13T01:57:44.450Z,58.84
2019-03-13T02:00:14.163Z,59.06
2019-03-13T02:02:43.373Z,59.26
2019-03-13T02:05:12.600Z,59.60
2019-03-13T02:07:41.798Z,59.75
2019-03-13T02:10:11.058Z,60.21
2019-03-13T02:12:40.349Z,60.61
2019-03-13T02:15:10.602Z,60.73
2019-03-13T02:17:39.800Z,61.10
2019-03-13T02:20:10.203Z,61.63
2019-03-13T02:22:39.390Z,61.77
2019-03-13T02:25:08.797Z,62.14
2019-03-13T02:27:38.000Z,62.36
2019-03-13T02:30:08.493Z,62.57
2019-03-13T02:32:38.047Z,62.93
2019-03-13T02:35:07.367Z,63.46
2019-03-13T02:37:38.540Z,63.74
2019-03-13T02:40:09.086Z,64.03
2019-03-13T02:42:38.323Z,64.58
2019-03-13T02:45:09.212Z,64.78
2019-03-13T02:47:38.896Z,65.01
2019-03-13T02:50:09.384Z,65.49
2019-03-13T02:52:38.581Z,65.67
2019-03-13T02:55:08.252Z,65.82
2019-03-13T02:57:37.644Z,66.10
2019-03-13T03:00:10.002Z,66.53
2019-03-13T03:02:57.303Z,66.93
2019-03-13T03:05:26.576Z,67.14
2019-03-13T03:07:55.753Z,67.26
2019-03-13T03:10:25.041Z,67.63
2019-03-13T03:12:54.286Z,67.88
2019-03-13T03:15:23.530Z,67.93
2019-03-13T03:17:52.805Z,68.33
2019-03-13T03:20:22.015Z,68.46
2019-03-13T03:22:51.220Z,68.81
2019-03-13T03:25:20.825Z,69.24
2019-03-13T03:27:50.178Z,69.58
2019-03-13T03:30:21.546Z,69.64
2019-03-13T03:32:51.209Z,69.82
2019-03-13T03:35:20.481Z,70.00
2019-03-13T03:37:49.675Z,70.31
2019-03-13T03:40:22.356Z,70.57
2019-03-13T03:42:50.040Z,70.53
2019-03-13T03:45:19.260Z,70.61
2019-03-13T03:47:48.579Z,70.87
2019-03-13T03:50:17.907Z,70.85
2019-03-13T03:52:47.510Z,71.31
2019-03-13T03:55:17.166Z,71.56
2019-03-13T03:57:46.567Z,71.47
2019-03-13T04:00:15.954Z,71.57
2019-03-13T04:02:45.181Z,72.15
2019-03-13T04:05:14.457Z,72.47
2019-03-13T04:07:43.843Z,72.31
2019-03-13T04:10:13.294Z,72.49
2019-03-13T04:12:42.541Z,72.77
2019-03-13T04:15:11.829Z,73.03
2019-03-13T04:17:41.066Z,73.00
2019-03-13T04:20:10.914Z,73.21
2019-03-13T04:22:40.190Z,73.58
2019-03-13T04:25:15.719Z,73.46
2019-03-13T04:27:44.937Z,73.48
2019-03-13T04:30:14.248Z,73.76
2019-03-13T04:32:43.816Z,74.08
2019-03-13T04:35:13.001Z,74.25
2019-03-13T04:37:42.190Z,74.29
2019-03-13T04:40:11.505Z,74.27
2019-03-13T04:42:40.774Z,74.26
2019-03-13T04:45:10.005Z,74.34
2019-03-13T04:47:39.214Z,74.31
2019-03-13T04:50:08.501Z,74.40
2019-03-13T04:52:37.750Z,74.55
2019-03-13T04:55:07.114Z,74.71
2019-03-13T04:57:36.310Z,74.73
2019-03-13T05:00:05.837Z,74.84
2019-03-13T05:02:35.138Z,74.78
2019-03-13T05:05:04.643Z,74.98
2019-03-13T05:07:33.838Z,75.01
2019-03-13T05:10:03.051Z,75.33
2019-03-13T05:12:32.337Z,75.35
2019-03-13T05:15:01.930Z,75.62
2019-03-13T05:17:31.151Z,75.93
2019-03-13T05:20:00.403Z,75.85
2019-03-13T05:22:29.693Z,75.94
2019-03-13T05:24:59.308Z,76.04
2019-03-13T05:27:28.512Z,76.20
2019-03-13T05:29:57.756Z,76.32
2019-03-13T05:32:27.130Z,76.42
2019-03-13T05:34:56.494Z,76.60
2019-03-13T05:37:25.702Z,76.75
2019-03-13T05:39:54.999Z,76.78
2019-03-13T05:42:24.270Z,76.80
2019-03-13T05:44:53.669Z,76.92
2019-03-13T05:47:23.246Z,77.08
2019-03-13T05:49:52.497Z,77.18
2019-03-13T05:52:21.742Z,77.22
2019-03-13T05:54:51.106Z,77.39
2019-03-13T05:57:20.352Z,77.57
2019-03-13T05:59:49.544Z,77.75
2019-03-13T06:02:18.779Z,77.78
2019-03-13T06:04:47.995Z,78.00
2019-03-13T06:07:20.295Z,78.04
2019-03-13T06:09:49.615Z,78.26
2019-03-13T06:12:18.800Z,78.34
2019-03-13T06:14:47.977Z,78.26
2019-03-13T06:17:17.192Z,78.49
2019-03-13T06:19:48.152Z,78.58
2019-03-13T06:22:17.452Z,78.84
2019-03-13T06:24:46.680Z,79.07
2019-03-13T06:27:15.893Z,79.13
2019-03-13T06:29:45.123Z,79.08
2019-03-13T06:32:14.450Z,79.16
2019-03-13T06:34:43.641Z,79.11
2019-03-13T06:37:13.062Z,79.41
2019-03-13T06:39:42.292Z,79.45
2019-03-13T06:42:11.518Z,79.82
2019-03-13T06:44:40.698Z,79.80
2019-03-13T06:47:10.037Z,79.85
2019-03-13T06:49:39.253Z,80.02
2019-03-13T06:52:08.431Z,80.02
2019-03-13T06:54:37.694Z,80.07
2019-03-13T06:57:06.882Z,80.05
2019-03-13T06:59:55.066Z,80.24
2019-03-13T07:02:31.412Z,80.25
2019-03-13T07:05:34.865Z,80.18
2019-03-13T07:08:26.120Z,80.15
2019-03-13T07:11:17.161Z,80.14
2019-03-13T07:14:01.111Z,80.13
2019-03-13T07:16:55.201Z,80.23
2019-03-13T07:19:52.660Z,80.34
2019-03-13T07:22:53.174Z,80.51
2019-03-13T07:25:49.683Z,80.41
2019-03-13T07:28:52.455Z,80.33
2019-03-13T07:31:42.897Z,80.40
2019-03-13T07:34:29.967Z,80.38
2019-03-13T07:37:36.633Z,80.50
2019-03-13T07:40:25.268Z,80.61
2019-03-13T07:43:28.822Z,80.56
2019-03-13T07:46:14.326Z,80.71
2019-03-13T07:49:01.429Z,80.74
2019-03-13T07:51:55.771Z,80.75
2019-03-13T07:54:45.000Z,80.75
2019-03-13T07:57:22.987Z,80.72
2019-03-13T08:00:07.807Z,80.91
2019-03-13T08:02:57.359Z,80.93
2019-03-13T08:05:45.950Z,80.95
2019-03-13T08:08:40.030Z,81.04
2019-03-13T08:11:37.378Z,81.20
2019-03-13T08:14:27.638Z,81.27
2019-03-13T08:17:09.197Z,81.24
2019-03-13T08:20:06.387Z,81.21
2019-03-13T08:23:06.852Z,81.35
2019-03-13T08:25:54.108Z,81.39
2019-03-13T08:28:42.250Z,81.34
2019-03-13T08:31:21.530Z,81.46
2019-03-13T08:34:07.273Z,81.54
2019-03-13T08:37:06.046Z,81.59
2019-03-13T08:39:47.519Z,81.74
2019-03-13T08:42:28.534Z,81.74
2019-03-13T08:45:15.334Z,81.75
2019-03-13T08:48:12.616Z,81.90
2019-03-13T08:51:00.902Z,81.86
2019-03-13T08:54:05.557Z,81.83
2019-03-13T08:56:53.775Z,82.13
2019-03-13T08:59:48.119Z,82.11
2019-03-13T09:02:36.431Z,82.15
2019-03-13T09:05:13.262Z,82.18
2019-03-13T09:08:00.621Z,82.21
2019-03-13T09:11:03.847Z,82.19
2019-03-13T09:13:59.528Z,82.07
2019-03-13T09:16:35.324Z,82.12
2019-03-13T09:19:20.358Z,82.11
2019-03-13T09:21:58.918Z,82.12
2019-03-13T09:25:11.202Z,82.21
2019-03-13T09:27:52.382Z,82.20
2019-03-13T09:30:39.406Z,82.36
2019-03-13T09:33:30.444Z,82.29
2019-03-13T09:36:20.088Z,82.25
2019-03-13T09:39:11.414Z,82.28
2019-03-13T09:41:59.559Z,82.38
2019-03-13T09:44:38.371Z,82.42
2019-03-13T09:47:32.542Z,82.53
2019-03-13T09:50:32.699Z,82.48
2019-03-13T09:53:33.034Z,82.47
2019-03-13T09:56:13.283Z,82.56
2019-03-13T09:58:52.369Z,82.49
2019-03-13T10:01:38.667Z,82.53
2019-03-13T10:04:25.736Z,82.60
2019-03-13T10:07:10.980Z,82.69
2019-03-13T10:09:51.198Z,82.70
2019-03-13T10:12:45.606Z,82.59
2019-03-13T10:15:36.716Z,82.70
2019-03-13T10:18:28.246Z,82.63
2019-03-13T10:21:17.833Z,82.90
2019-03-13T10:23:55.079Z,82.80
2019-03-13T10:26:49.432Z,82.76
2019-03-13T10:29:40.819Z,82.78
2019-03-13T10:32:29.155Z,82.76
2019-03-13T10:35:24.230Z,82.87
2019-03-13T10:38:19.035Z,82.79
2019-03-13T10:41:11.424Z,82.77
2019-03-13T10:43:59.598Z,82.71
2019-03-13T10:46:53.967Z,82.68
2019-03-13T10:49:31.622Z,82.79
2019-03-13T10:52:09.536Z,82.83
2019-03-13T10:54:56.291Z,82.82
2019-03-13T10:57:44.571Z,82.85
2019-03-13T11:00:33.069Z,82.82
2019-03-13T11:03:21.268Z,82.85
2019-03-13T11:06:00.374Z,82.84
2019-03-13T11:08:52.863Z,82.93
2019-03-13T11:11:35.106Z,82.92
2019-03-13T11:14:31.850Z,82.88
2019-03-13T11:17:16.930Z,82.91
2019-03-13T11:20:04.008Z,82.92
2019-03-13T11:22:48.339Z,82.89
2019-03-13T11:25:24.191Z,82.88
2019-03-13T11:28:18.338Z,82.90
2019-03-13T11:31:08.650Z,83.06
2019-03-13T11:34:09.071Z,83.07
2019-03-13T11:37:00.300Z,83.08
2019-03-13T11:39:51.681Z,82.98
2019-03-13T11:42:42.943Z,83.01
2019-03-13T11:45:23.054Z,82.98
2019-03-13T11:48:10.964Z,83.03
2019-03-13T11:51:05.198Z,83.12
2019-03-13T11:53:56.031Z,83.14
2019-03-13T11:56:44.306Z,83.09
2019-03-13T11:59:47.891Z,83.07
2019-03-13T12:02:48.024Z,83.17
2019-03-13T12:05:39.329Z,83.16
2019-03-13T12:08:32.086Z,83.16
2019-03-13T12:11:32.610Z,83.14
2019-03-13T12:14:20.996Z,83.04
2019-03-13T12:17:05.309Z,83.00
2019-03-13T12:19:53.570Z,83.12
2019-03-13T12:22:38.962Z,83.20
2019-03-13T12:25:31.513Z,83.20
2019-03-13T12:28:19.870Z,83.22
2019-03-13T12:31:08.018Z,83.31
2019-03-13T12:33:45.695Z,83.35
2019-03-13T12:36:23.642Z,83.40
2019-03-13T12:39:17.342Z,83.56
2019-03-13T12:42:04.061Z,83.64
2019-03-13T12:44:43.232Z,83.69
2019-03-13T12:47:31.421Z,83.66
2019-03-13T12:50:18.553Z,83.70
2019-03-13T12:53:25.097Z,83.71
2019-03-13T12:56:16.271Z,83.85
2019-03-13T12:59:07.535Z,83.80
2019-03-13T13:02:14.193Z,83.82
2019-03-13T13:05:01.196Z,83.78
2019-03-13T13:07:48.276Z,84.03
2019-03-13T13:10:36.413Z,83.88
2019-03-13T13:13:27.938Z,83.81
2019-03-13T13:16:16.180Z,83.92
2019-03-13T13:19:02.426Z,83.94
2019-03-13T13:21:31.656Z,84.07
2019-03-13T13:24:01.023Z,84.02
2019-03-13T13:26:30.635Z,84.15
2019-03-13T13:28:59.839Z,84.13
2019-03-13T13:31:29.139Z,84.16
2019-03-13T13:33:58.485Z,84.18
2019-03-13T13:36:27.691Z,84.21
2019-03-13T13:38:57.720Z,84.23
2019-03-13T13:41:27.102Z,84.24
2019-03-13T13:43:57.761Z,84.25
2019-03-13T13:46:29.471Z,84.30
2019-03-13T13:48:59.238Z,84.44
2019-03-13T13:51:28.613Z,84.38
2019-03-13T13:53:57.829Z,84.27
2019-03-13T13:56:27.067Z,84.24
2019-03-13T13:58:56.362Z,84.22
2019-03-13T14:01:25.716Z,84.19
2019-03-13T14:03:55.214Z,84.27
2019-03-13T14:06:24.533Z,84.33
2019-03-13T14:08:53.726Z,84.25
2019-03-13T14:11:22.964Z,84.19
2019-03-13T14:13:52.299Z,84.18
2019-03-13T14:16:24.563Z,84.13
2019-03-13T14:18:54.360Z,84.06
2019-03-13T14:21:23.603Z,84.03
2019-03-13T14:23:54.714Z,84.08
2019-03-13T14:26:23.930Z,84.10
2019-03-13T14:28:53.158Z,84.24
2019-03-13T14:31:22.442Z,84.21
2019-03-13T14:33:51.975Z,83.95
2019-03-13T14:36:21.140Z,83.58
2019-03-13T14:38:50.332Z,83.77
2019-03-13T14:41:19.672Z,83.22
2019-03-13T14:43:48.891Z,81.59
2019-03-13T14:46:18.096Z,80.40
2019-03-13T14:48:47.351Z,79.76
2019-03-13T14:51:16.572Z,79.98
2019-03-13T14:53:45.829Z,80.68
2019-03-13T14:56:15.126Z,81.09
2019-03-13T14:58:44.373Z,81.45
2019-03-13T15:01:13.610Z,81.20
2019-03-13T15:03:42.895Z,81.41
2019-03-13T15:06:12.077Z,81.33
2019-03-13T15:08:41.293Z,81.34
2019-03-13T15:11:10.539Z,81.12
2019-03-13T15:13:39.722Z,80.76
2019-03-13T15:16:08.929Z,80.31
2019-03-13T15:18:38.288Z,79.98
2019-03-13T15:21:07.502Z,78.83
2019-03-13T15:23:36.719Z,77.36
2019-03-13T15:26:06.191Z,76.54
2019-03-13T15:28:35.457Z,75.94
2019-03-13T15:31:05.140Z,75.24
2019-03-13T15:33:34.869Z,74.87
2019-03-13T15:36:04.071Z,75.49
2019-03-13T15:38:33.093Z,75.83
2019-03-13T15:41:02.340Z,75.77
2019-03-13T15:43:32.232Z,75.77
2019-03-13T15:46:01.464Z,75.57
2019-03-13T15:48:33.835Z,75.30
2019-03-13T15:51:03.031Z,75.65
2019-03-13T15:53:34.359Z,76.66
2019-03-13T15:56:05.941Z,77.67
2019-03-13T15:58:35.174Z,78.48
2019-03-13T16:01:04.527Z,78.98
2019-03-13T16:03:33.790Z,79.37
2019-03-13T16:06:03.092Z,79.89
2019-03-13T16:08:32.283Z,80.08
2019-03-13T16:11:01.737Z,80.12
2019-03-13T16:13:30.927Z,80.40
2019-03-13T16:16:01.691Z,80.64
2019-03-13T16:18:30.945Z,80.81
2019-03-13T16:21:00.544Z,80.97
2019-03-13T16:23:29.742Z,81.04
2019-03-13T16:25:59.335Z,81.13
2019-03-13T16:28:28.762Z,81.20
2019-03-13T16:30:57.900Z,81.33
2019-03-13T16:33:27.130Z,81.52
2019-03-13T16:35:56.433Z,81.53
2019-03-13T16:38:25.705Z,81.59
2019-03-13T16:40:57.492Z,81.64
2019-03-13T16:43:26.760Z,81.68
2019-03-13T16:45:56.026Z,81.74
2019-03-13T16:48:25.397Z,81.94
2019-03-13T16:50:54.629Z,81.72
2019-03-13T16:53:23.964Z,81.62
2019-03-13T16:55:53.231Z,81.61
2019-03-13T16:58:22.519Z,81.69
2019-03-13T17:00:51.717Z,81.73
2019-03-13T17:03:20.984Z,81.81
2019-03-13T17:05:50.176Z,81.85
2019-03-13T17:08:19.489Z,81.86
2019-03-13T17:10:48.728Z,81.91
2019-03-13T17:13:17.947Z,81.99
2019-03-13T17:15:47.525Z,82.09
2019-03-13T17:18:17.848Z,82.14
2019-03-13T17:20:47.048Z,82.15
2019-03-13T17:23:16.280Z,82.16
2019-03-13T17:25:45.519Z,82.18
2019-03-13T17:28:14.995Z,82.19
2019-03-13T17:30:44.252Z,82.18
2019-03-13T17:33:13.591Z,82.27
2019-03-13T17:35:42.798Z,82.23
2019-03-13T17:38:12.035Z,82.26
2019-03-13T17:40:41.420Z,82.23
2019-03-13T17:43:12.953Z,82.25
2019-03-13T17:45:42.146Z,82.22
2019-03-13T17:48:11.412Z,82.29
2019-03-13T17:50:40.627Z,82.39
2019-03-13T17:53:09.869Z,82.40
2019-03-13T17:55:39.167Z,82.48
2019-03-13T17:58:08.405Z,82.50
2019-03-13T18:00:44.569Z,82.54
2019-03-13T18:03:13.830Z,82.53
2019-03-13T18:05:43.314Z,82.65
2019-03-13T18:08:12.539Z,82.75
2019-03-13T18:10:41.901Z,82.78
2019-03-13T18:13:11.467Z,82.82
2019-03-13T18:15:40.774Z,82.81
2019-03-13T18:18:10.126Z,82.87
2019-03-13T18:20:39.974Z,82.82
2019-03-13T18:23:10.037Z,83.02
2019-03-13T18:25:39.169Z,83.05
2019-03-13T18:28:08.467Z,83.03
2019-03-13T18:30:37.945Z,83.01
2019-03-13T18:33:07.249Z,83.01
2019-03-13T18:35:36.513Z,83.03
2019-03-13T18:38:05.781Z,83.11
2019-03-13T18:40:34.977Z,83.07
2019-03-13T18:43:04.164Z,83.12
2019-03-13T18:45:34.912Z,83.21
2019-03-13T18:48:04.119Z,83.24
2019-03-13T18:50:33.316Z,83.26
2019-03-13T18:53:02.618Z,83.32
2019-03-13T18:55:31.971Z,83.37
2019-03-13T18:58:01.216Z,83.54
2019-03-13T19:00:31.073Z,83.49
2019-03-13T19:03:00.920Z,83.51
2019-03-13T19:05:30.145Z,83.53
2019-03-13T19:08:02.995Z,83.58
2019-03-13T19:10:32.444Z,83.61
2019-03-13T19:13:01.926Z,83.59
2019-03-13T19:15:31.575Z,83.75
2019-03-13T19:18:01.401Z,83.79
2019-03-13T19:20:31.349Z,83.82
2019-03-13T19:23:00.724Z,83.87
2019-03-13T19:25:30.032Z,83.91
2019-03-13T19:27:59.814Z,83.99
2019-03-13T19:30:30.426Z,83.94
2019-03-13T19:33:00.285Z,84.01
2019-03-13T19:35:29.672Z,83.99
2019-03-13T19:37:59.400Z,83.96
2019-03-13T19:40:28.835Z,83.96
2019-03-13T19:42:58.205Z,83.94
2019-03-13T19:45:45.909Z,83.93
2019-03-13T19:48:15.196Z,83.92
2019-03-13T19:50:44.569Z,83.92
2019-03-13T19:53:13.977Z,84.02
2019-03-13T19:55:43.193Z,84.03
2019-03-13T19:58:12.424Z,83.99
2019-03-13T20:00:41.753Z,84.15
2019-03-13T20:03:11.029Z,84.08
2019-03-13T20:05:45.694Z,84.18
2019-03-13T20:08:13.631Z,84.30
2019-03-13T20:10:42.268Z,84.31
2019-03-13T20:13:11.541Z,84.36
2019-03-13T20:15:40.976Z,84.42
2019-03-13T20:18:10.482Z,84.47
2019-03-13T20:20:39.807Z,84.46
2019-03-13T20:23:09.119Z,84.44
2019-03-13T20:25:38.383Z,84.45
2019-03-13T20:28:07.953Z,84.41
2019-03-13T20:30:37.520Z,84.39
2019-03-13T20:33:06.761Z,84.38
2019-03-13T20:35:37.006Z,84.37
2019-03-13T20:38:06.309Z,84.29
2019-03-13T20:40:35.536Z,84.28
2019-03-13T20:43:04.771Z,84.28
2019-03-13T20:45:34.225Z,84.31
2019-03-13T20:48:03.922Z,84.27
2019-03-13T20:50:37.388Z,84.31
2019-03-13T20:53:04.291Z,84.36
2019-03-13T20:55:33.775Z,84.37
2019-03-13T20:58:03.120Z,84.36
2019-03-13T21:00:34.666Z,84.37
2019-03-13T21:03:04.343Z,84.38
2019-03-13T21:05:33.962Z,84.36
2019-03-13T21:08:03.274Z,84.40
2019-03-13T21:10:32.483Z,84.44
2019-03-13T21:13:01.723Z,84.41
2019-03-13T21:15:31.098Z,84.42
2019-03-13T21:18:00.605Z,84.44
2019-03-13T21:20:29.822Z,84.39
2019-03-13T21:22:59.273Z,84.37
2019-03-13T21:25:28.541Z,84.42
2019-03-13T21:27:58.014Z,84.39
2019-03-13T21:30:27.292Z,84.38
2019-03-13T21:32:56.481Z,84.37
2019-03-13T21:35:25.887Z,84.37
2019-03-13T21:37:55.122Z,84.36
2019-03-13T21:40:24.453Z,84.33
2019-03-13T21:42:54.817Z,84.30
2019-03-13T21:45:24.575Z,84.34
2019-03-13T21:47:53.832Z,84.34
2019-03-13T21:50:23.871Z,84.36
2019-03-13T21:52:53.151Z,84.40
2019-03-13T21:55:22.397Z,84.42
2019-03-13T21:57:52.491Z,84.44
2019-03-13T22:00:23.485Z,84.49
2019-03-13T22:02:52.736Z,84.42
2019-03-13T22:05:26.098Z,84.42
2019-03-13T22:07:53.389Z,84.35
2019-03-13T22:10:22.693Z,84.40
2019-03-13T22:12:52.190Z,84.39
2019-03-13T22:15:21.545Z,84.38
2019-03-13T22:17:51.258Z,84.38
2019-03-13T22:20:20.634Z,84.31
2019-03-13T22:22:49.901Z,84.32
2019-03-13T22:25:19.127Z,84.31
2019-03-13T22:27:48.359Z,84.34
2019-03-13T22:30:19.346Z,84.32
2019-03-13T22:32:48.576Z,84.37
2019-03-13T22:35:17.775Z,84.35
2019-03-13T22:37:47.480Z,84.39
2019-03-13T22:40:16.820Z,84.38
2019-03-13T22:42:46.089Z,84.42
2019-03-13T22:45:15.419Z,84.46
2019-03-13T22:47:44.704Z,84.46
2019-03-13T22:50:15.825Z,84.41
2019-03-13T22:52:45.104Z,84.40
2019-03-13T22:55:14.423Z,84.40
2019-03-13T22:57:43.738Z,84.39
2019-03-13T23:00:27.702Z,84.39
2019-03-13T23:02:57.024Z,84.42
2019-03-13T23:05:26.420Z,84.36
2019-03-13T23:07:55.708Z,84.37
2019-03-13T23:10:31.728Z,84.34
2019-03-13T23:13:00.946Z,84.36
2019-03-13T23:15:30.131Z,84.33
2019-03-13T23:17:59.658Z,84.30
2019-03-13T23:20:28.817Z,84.29
2019-03-13T23:22:58.090Z,84.28
2019-03-13T23:25:27.279Z,84.26
2019-03-13T23:27:56.496Z,84.21
2019-03-13T23:30:25.740Z,84.18
2019-03-13T23:32:54.927Z,84.13
2019-03-13T23:35:24.180Z,84.13
2019-03-13T23:37:53.600Z,84.10
2019-03-13T23:40:22.840Z,84.11
2019-03-13T23:42:52.051Z,84.10
2019-03-13T23:45:21.259Z,84.08
2019-03-13T23:47:50.485Z,84.03
2019-03-13T23:50:19.714Z,84.02
2019-03-13T23:52:48.919Z,84.02
2019-03-13T23:55:18.119Z,84.01
2019-03-13T23:57:47.359Z,84.02
